Coker, AL

7:24 AM CDT on September 05, 2015 (GMT -0500)
Highland Park | | Change Station
CLOSE
Current Station
Personal Weather Station
Location: Northport, AL
Elevation: 282 ft
Nearby Weather Stations

Elev 282 ft 33.26 °N, 87.62 °W | Updated 11 minutes ago

Clear
Clear
72.0 °F
Feels Like 72.0 °F
N
0.0
Wind Variable Wind from North

Today
High -- | Low -- °F
--% Chance of Precip.
Yesterday
High -- | Low -- °F
Precip. -- in
6:27 AM 7:10 PM
Waning Gibbous, 49% visible
Pressure 30.04 in
Visibility 4.0 miles
Clouds Clear
Dew Point 72 °F
Humidity 99%
Rainfall 0.00 in
Snow Depth Not available.
UV 0 out of 12
Pollen 9.30 out of 12
Air Quality Not available.
Flu Activity Not available.
METAR KTCL 051153Z 00000KT 4SM BR CLR 23/22 A3004 RMK AO2 SLP170 T02280217 10244 20222 53018
Pressure 30.04 in
Visibility 4.0 miles
Clouds Clear
Dew Point 72 °F
Humidity 99%
Rainfall 0.00 in
Snow Depth Not available.
UV 0 out of 12
Pollen 9.30 out of 12
Air Quality Not available.
Flu Activity Not available.
METAR KTCL 051153Z 00000KT 4SM BR CLR 23/22 A3004 RMK AO2 SLP170 T02280217 10244 20222 53018

10-Day Weather Forecast

×

Almanac

Astronomy

Sep. 05, 2015 Rise Set
Actual Time
Civil Twilight
Nautical Twilight
Astronomical Twilight
Moon
Length of Visible Light
Length of Day
Tomorrow will be .
, % of the Moon is Illuminated

Today's Extremes

State Highs State Lows

Community

WunderPhotos

Upload Photos

1,852,455 photos uploaded!

WunderBlogs® & News

Nearby

Air Quality

  Air Quality AQ Index Pollutant
Not available.

Snow Depth

Station Depth Elevation

Earthquake Activity

City Distance Mag. Time & Date
Minimum magnitude displayed is 2.5.

Coastal Water Temperatures

Place Temperature

Stations

Nearby Weather Stations

Station Location Temp. Windchill Dew Point Humidity Wind Precip. Elev Updated Type